sensor_id;sensor_type;location;lat;lon;timestamp;P1;durP1;ratioP1;P2;durP2;ratioP2
50591;SDS011;36548;50.506;30.834;2022-10-28T00:02:25;10.72;;;7.43;;
50591;SDS011;36548;50.506;30.834;2022-10-28T00:03:52;10.27;;;7.85;;
50591;SDS011;36548;50.506;30.834;2022-10-28T00:05:00;8.87;;;7.45;;
50591;SDS011;36548;50.506;30.834;2022-10-28T00:06:11;7.68;;;6.90;;
50591;SDS011;36548;50.506;30.834;2022-10-28T00:07:22;10.53;;;8.12;;
50591;SDS011;36548;50.506;30.834;2022-10-28T00:08:31;8.77;;;7.73;;
50591;SDS011;36548;50.506;30.834;2022-10-28T00:09:46;10.73;;;7.90;;
50591;SDS011;36548;50.506;30.834;2022-10-28T00:11:06;12.53;;;8.17;;
50591;SDS011;36548;50.506;30.834;2022-10-28T00:12:22;8.02;;;7.18;;
50591;SDS011;36548;50.506;30.834;2022-10-28T00:13:37;8.56;;;7.50;;
50591;SDS011;36548;50.506;30.834;2022-10-28T00:14:47;10.10;;;8.12;;
50591;SDS011;36548;50.506;30.834;2022-10-28T00:16:15;8.83;;;7.53;;
50591;SDS011;36548;50.506;30.834;2022-10-28T00:17:32;9.25;;;7.30;;
50591;SDS011;36548;50.506;30.834;2022-10-28T00:18:42;9.33;;;7.62;;
50591;SDS011;36548;50.506;30.834;2022-10-28T00:20:10;10.15;;;7.48;;
50591;SDS011;36548;50.506;30.834;2022-10-28T00:21:27;8.92;;;7.50;;
50591;SDS011;36548;50.506;30.834;2022-10-28T00:22:37;8.20;;;7.30;;
50591;SDS011;36548;50.506;30.834;2022-10-28T00:24:05;8.67;;;7.83;;
50591;SDS011;36548;50.506;30.834;2022-10-28T00:25:22;9.90;;;7.97;;
50591;SDS011;36548;50.506;30.834;2022-10-28T00:26:34;8.63;;;7.70;;
50591;SDS011;36548;50.506;30.834;2022-10-28T00:28:02;13.65;;;8.10;;
50591;SDS011;36548;50.506;30.834;2022-10-28T00:29:17;9.20;;;7.55;;
50591;SDS011;36548;50.506;30.834;2022-10-28T00:30:28;8.53;;;7.08;;
50591;SDS011;36548;50.506;30.834;2022-10-28T00:31:54;9.13;;;7.48;;
50591;SDS011;36548;50.506;30.834;2022-10-28T00:33:04;6.90;;;6.10;;
50591;SDS011;36548;50.506;30.834;2022-10-28T00:34:15;8.25;;;5.42;;
50591;SDS011;36548;50.506;30.834;2022-10-28T00:35:26;7.27;;;5.62;;
50591;SDS011;36548;50.506;30.834;2022-10-28T00:36:41;5.38;;;4.85;;
50591;SDS011;36548;50.506;30.834;2022-10-28T00:37:53;6.73;;;5.17;;
50591;SDS011;36548;50.506;30.834;2022-10-28T00:39:21;7.25;;;5.65;;
50591;SDS011;36548;50.506;30.834;2022-10-28T00:40:33;11.45;;;5.78;;
50591;SDS011;36548;50.506;30.834;2022-10-28T00:41:55;8.28;;;6.32;;
50591;SDS011;36548;50.506;30.834;2022-10-28T00:43:07;9.52;;;6.75;;
50591;SDS011;36548;50.506;30.834;2022-10-28T00:46:04;7.22;;;6.53;;
50591;SDS011;36548;50.506;30.834;2022-10-28T00:49:13;9.15;;;7.48;;
50591;SDS011;36548;50.506;30.834;2022-10-28T00:50:19;8.22;;;7.22;;
50591;SDS011;36548;50.506;30.834;2022-10-28T00:51:46;11.20;;;7.60;;
50591;SDS011;36548;50.506;30.834;2022-10-28T00:53:08;9.43;;;7.28;;
50591;SDS011;36548;50.506;30.834;2022-10-28T00:54:26;8.50;;;7.55;;
50591;SDS011;36548;50.506;30.834;2022-10-28T00:55:38;7.82;;;6.85;;
50591;SDS011;36548;50.506;30.834;2022-10-28T00:56:50;8.52;;;7.17;;
50591;SDS011;36548;50.506;30.834;2022-10-28T00:58:01;8.37;;;7.42;;
50591;SDS011;36548;50.506;30.834;2022-10-28T00:59:17;8.52;;;7.10;;
50591;SDS011;36548;50.506;30.834;2022-10-28T01:00:54;8.65;;;7.75;;
50591;SDS011;36548;50.506;30.834;2022-10-28T01:02:04;8.62;;;7.67;;
50591;SDS011;36548;50.506;30.834;2022-10-28T01:03:14;9.00;;;8.15;;
50591;SDS011;36548;50.506;30.834;2022-10-28T01:04:29;8.63;;;7.12;;
50591;SDS011;36548;50.506;30.834;2022-10-28T01:05:40;10.60;;;8.17;;
50591;SDS011;36548;50.506;30.834;2022-10-28T01:06:50;9.55;;;7.97;;
50591;SDS011;36548;50.506;30.834;2022-10-28T01:08:02;9.05;;;7.80;;
50591;SDS011;36548;50.506;30.834;2022-10-28T01:09:18;8.85;;;7.32;;
50591;SDS011;36548;50.506;30.834;2022-10-28T01:11:45;13.57;;;8.20;;
50591;SDS011;36548;50.506;30.834;2022-10-28T01:13:12;8.52;;;7.48;;
50591;SDS011;36548;50.506;30.834;2022-10-28T01:22:43;10.37;;;7.70;;
50591;SDS011;36548;50.506;30.834;2022-10-28T01:24:06;10.30;;;7.47;;
50591;SDS011;36548;50.506;30.834;2022-10-28T01:25:42;9.48;;;8.03;;
50591;SDS011;36548;50.506;30.834;2022-10-28T01:30:09;9.85;;;7.50;;
50591;SDS011;36548;50.506;30.834;2022-10-28T01:31:26;8.40;;;7.00;;
50591;SDS011;36548;50.506;30.834;2022-10-28T01:35:50;8.35;;;7.55;;
50591;SDS011;36548;50.506;30.834;2022-10-28T01:37:05;8.88;;;7.53;;
50591;SDS011;36548;50.506;30.834;2022-10-28T01:38:30;9.35;;;7.12;;
50591;SDS011;36548;50.506;30.834;2022-10-28T01:39:53;7.75;;;7.05;;
50591;SDS011;36548;50.506;30.834;2022-10-28T01:41:32;8.00;;;7.20;;
50591;SDS011;36548;50.506;30.834;2022-10-28T01:42:54;8.58;;;7.38;;
50591;SDS011;36548;50.506;30.834;2022-10-28T01:48:28;10.92;;;7.28;;
50591;SDS011;36548;50.506;30.834;2022-10-28T01:49:48;8.15;;;6.67;;
50591;SDS011;36548;50.506;30.834;2022-10-28T01:51:02;8.12;;;6.67;;
50591;SDS011;36548;50.506;30.834;2022-10-28T01:52:16;9.00;;;6.97;;
50591;SDS011;36548;50.506;30.834;2022-10-28T01:53:34;8.13;;;7.05;;
50591;SDS011;36548;50.506;30.834;2022-10-28T01:54:51;9.32;;;7.02;;
50591;SDS011;36548;50.506;30.834;2022-10-28T01:56:03;8.33;;;6.95;;
50591;SDS011;36548;50.506;30.834;2022-10-28T01:57:20;10.93;;;7.93;;
50591;SDS011;36548;50.506;30.834;2022-10-28T01:58:32;8.13;;;7.33;;
50591;SDS011;36548;50.506;30.834;2022-10-28T01:59:46;8.22;;;7.23;;
50591;SDS011;36548;50.506;30.834;2022-10-28T02:01:04;12.58;;;7.60;;
50591;SDS011;36548;50.506;30.834;2022-10-28T02:02:17;8.85;;;7.90;;
50591;SDS011;36548;50.506;30.834;2022-10-28T02:03:26;7.70;;;6.95;;
50591;SDS011;36548;50.506;30.834;2022-10-28T02:04:35;7.92;;;7.15;;
50591;SDS011;36548;50.506;30.834;2022-10-28T02:05:51;9.17;;;6.97;;
50591;SDS011;36548;50.506;30.834;2022-10-28T02:07:03;10.68;;;7.62;;
50591;SDS011;36548;50.506;30.834;2022-10-28T02:09:50;8.87;;;7.15;;
50591;SDS011;36548;50.506;30.834;2022-10-28T02:11:24;9.53;;;7.13;;
50591;SDS011;36548;50.506;30.834;2022-10-28T02:12:51;8.63;;;7.23;;
50591;SDS011;36548;50.506;30.834;2022-10-28T02:15:32;9.27;;;7.08;;
50591;SDS011;36548;50.506;30.834;2022-10-28T02:16:48;7.68;;;6.95;;
50591;SDS011;36548;50.506;30.834;2022-10-28T02:21:18;9.78;;;7.97;;
50591;SDS011;36548;50.506;30.834;2022-10-28T02:24:04;8.10;;;7.30;;
50591;SDS011;36548;50.506;30.834;2022-10-28T02:26:36;8.57;;;7.20;;
50591;SDS011;36548;50.506;30.834;2022-10-28T02:27:58;9.12;;;7.57;;
50591;SDS011;36548;50.506;30.834;2022-10-28T02:29:13;7.32;;;6.68;;
50591;SDS011;36548;50.506;30.834;2022-10-28T02:32:02;8.55;;;7.60;;
50591;SDS011;36548;50.506;30.834;2022-10-28T02:33:16;8.58;;;7.27;;
50591;SDS011;36548;50.506;30.834;2022-10-28T02:34:39;8.68;;;7.85;;
50591;SDS011;36548;50.506;30.834;2022-10-28T02:36:00;8.80;;;7.25;;
50591;SDS011;36548;50.506;30.834;2022-10-28T02:37:23;8.47;;;7.25;;
50591;SDS011;36548;50.506;30.834;2022-10-28T02:38:36;8.82;;;7.38;;
50591;SDS011;36548;50.506;30.834;2022-10-28T02:39:56;10.07;;;7.48;;
50591;SDS011;36548;50.506;30.834;2022-10-28T02:41:12;8.65;;;7.77;;
50591;SDS011;36548;50.506;30.834;2022-10-28T02:42:39;8.42;;;7.62;;
50591;SDS011;36548;50.506;30.834;2022-10-28T02:43:54;9.33;;;7.80;;
50591;SDS011;36548;50.506;30.834;2022-10-28T02:45:28;11.50;;;7.00;;
50591;SDS011;36548;50.506;30.834;2022-10-28T02:46:40;11.45;;;7.80;;
50591;SDS011;36548;50.506;30.834;2022-10-28T02:47:54;8.32;;;7.35;;
50591;SDS011;36548;50.506;30.834;2022-10-28T02:49:14;11.12;;;8.03;;
50591;SDS011;36548;50.506;30.834;2022-10-28T02:50:25;10.27;;;7.68;;
50591;SDS011;36548;50.506;30.834;2022-10-28T02:51:56;9.47;;;6.82;;
50591;SDS011;36548;50.506;30.834;2022-10-28T02:53:14;10.15;;;7.25;;
50591;SDS011;36548;50.506;30.834;2022-10-28T02:54:34;11.98;;;7.68;;
50591;SDS011;36548;50.506;30.834;2022-10-28T02:56:02;9.35;;;7.53;;
50591;SDS011;36548;50.506;30.834;2022-10-28T02:57:16;10.08;;;7.60;;
50591;SDS011;36548;50.506;30.834;2022-10-28T02:58:38;9.20;;;7.30;;
50591;SDS011;36548;50.506;30.834;2022-10-28T02:59:58;8.33;;;7.52;;
50591;SDS011;36548;50.506;30.834;2022-10-28T03:01:27;9.10;;;7.48;;
50591;SDS011;36548;50.506;30.834;2022-10-28T03:02:43;9.55;;;7.57;;
50591;SDS011;36548;50.506;30.834;2022-10-28T03:03:53;10.67;;;7.65;;
50591;SDS011;36548;50.506;30.834;2022-10-28T03:05:20;9.18;;;7.80;;
50591;SDS011;36548;50.506;30.834;2022-10-28T03:06:41;9.20;;;7.00;;
50591;SDS011;36548;50.506;30.834;2022-10-28T03:07:51;10.67;;;8.23;;
50591;SDS011;36548;50.506;30.834;2022-10-28T03:09:18;10.13;;;7.92;;
50591;SDS011;36548;50.506;30.834;2022-10-28T03:10:33;10.88;;;7.23;;
50591;SDS011;36548;50.506;30.834;2022-10-28T03:11:43;7.93;;;6.98;;
50591;SDS011;36548;50.506;30.834;2022-10-28T03:12:52;9.57;;;7.25;;
50591;SDS011;36548;50.506;30.834;2022-10-28T03:14:02;9.47;;;7.83;;
50591;SDS011;36548;50.506;30.834;2022-10-28T03:15:18;9.85;;;7.85;;
50591;SDS011;36548;50.506;30.834;2022-10-28T03:16:28;7.87;;;5.80;;
50591;SDS011;36548;50.506;30.834;2022-10-28T03:17:43;8.48;;;7.63;;
50591;SDS011;36548;50.506;30.834;2022-10-28T03:18:52;11.87;;;8.62;;
50591;SDS011;36548;50.506;30.834;2022-10-28T03:20:08;8.52;;;7.68;;
50591;SDS011;36548;50.506;30.834;2022-10-28T03:21:19;9.33;;;8.33;;
50591;SDS011;36548;50.506;30.834;2022-10-28T03:22:35;8.00;;;7.20;;
50591;SDS011;36548;50.506;30.834;2022-10-28T03:23:45;9.83;;;7.83;;
50591;SDS011;36548;50.506;30.834;2022-10-28T03:24:55;9.63;;;7.82;;
50591;SDS011;36548;50.506;30.834;2022-10-28T03:26:10;9.18;;;8.08;;
50591;SDS011;36548;50.506;30.834;2022-10-28T03:27:18;9.27;;;7.50;;
50591;SDS011;36548;50.506;30.834;2022-10-28T03:28:28;8.95;;;7.98;;
50591;SDS011;36548;50.506;30.834;2022-10-28T03:29:37;10.50;;;8.30;;
50591;SDS011;36548;50.506;30.834;2022-10-28T03:30:48;10.65;;;8.03;;
50591;SDS011;36548;50.506;30.834;2022-10-28T03:32:03;9.82;;;8.38;;
50591;SDS011;36548;50.506;30.834;2022-10-28T03:34:29;9.85;;;7.70;;
50591;SDS011;36548;50.506;30.834;2022-10-28T03:35:37;8.37;;;7.50;;
50591;SDS011;36548;50.506;30.834;2022-10-28T03:36:53;9.28;;;7.95;;
50591;SDS011;36548;50.506;30.834;2022-10-28T03:38:04;9.07;;;8.23;;
50591;SDS011;36548;50.506;30.834;2022-10-28T03:39:13;10.53;;;7.97;;
50591;SDS011;36548;50.506;30.834;2022-10-28T03:40:29;10.98;;;8.33;;
50591;SDS011;36548;50.506;30.834;2022-10-28T03:41:37;11.32;;;8.23;;
50591;SDS011;36548;50.506;30.834;2022-10-28T03:42:47;10.55;;;8.85;;
50591;SDS011;36548;50.506;30.834;2022-10-28T03:43:56;13.20;;;8.85;;
50591;SDS011;36548;50.506;30.834;2022-10-28T03:45:06;10.70;;;8.60;;
50591;SDS011;36548;50.506;30.834;2022-10-28T03:46:23;10.85;;;8.70;;
50591;SDS011;36548;50.506;30.834;2022-10-28T03:47:32;9.72;;;7.85;;
50591;SDS011;36548;50.506;30.834;2022-10-28T03:48:48;9.67;;;8.30;;
50591;SDS011;36548;50.506;30.834;2022-10-28T03:49:57;9.83;;;8.23;;
50591;SDS011;36548;50.506;30.834;2022-10-28T03:51:06;12.37;;;8.80;;
50591;SDS011;36548;50.506;30.834;2022-10-28T03:52:15;12.47;;;9.12;;
50591;SDS011;36548;50.506;30.834;2022-10-28T03:53:25;11.93;;;9.88;;
50591;SDS011;36548;50.506;30.834;2022-10-28T03:54:36;10.22;;;8.82;;
50591;SDS011;36548;50.506;30.834;2022-10-28T03:57:07;10.73;;;9.47;;
50591;SDS011;36548;50.506;30.834;2022-10-28T03:58:16;10.00;;;8.55;;
50591;SDS011;36548;50.506;30.834;2022-10-28T03:59:26;11.92;;;9.55;;
50591;SDS011;36548;50.506;30.834;2022-10-28T04:00:35;13.73;;;10.78;;
50591;SDS011;36548;50.506;30.834;2022-10-28T04:01:45;13.23;;;9.93;;
50591;SDS011;36548;50.506;30.834;2022-10-28T04:03:01;13.90;;;10.23;;
50591;SDS011;36548;50.506;30.834;2022-10-28T04:04:11;12.78;;;9.77;;
50591;SDS011;36548;50.506;30.834;2022-10-28T04:05:27;15.85;;;13.10;;
50591;SDS011;36548;50.506;30.834;2022-10-28T04:06:36;13.70;;;10.77;;
50591;SDS011;36548;50.506;30.834;2022-10-28T04:07:52;14.18;;;10.10;;
50591;SDS011;36548;50.506;30.834;2022-10-28T04:09:01;12.80;;;10.25;;
50591;SDS011;36548;50.506;30.834;2022-10-28T04:10:18;12.88;;;9.87;;
50591;SDS011;36548;50.506;30.834;2022-10-28T04:11:27;13.28;;;11.18;;
50591;SDS011;36548;50.506;30.834;2022-10-28T04:12:37;11.77;;;10.27;;
50591;SDS011;36548;50.506;30.834;2022-10-28T04:13:47;12.57;;;11.03;;
50591;SDS011;36548;50.506;30.834;2022-10-28T04:15:02;13.90;;;11.12;;
50591;SDS011;36548;50.506;30.834;2022-10-28T04:16:13;13.90;;;12.55;;
50591;SDS011;36548;50.506;30.834;2022-10-28T04:17:28;16.10;;;12.55;;
50591;SDS011;36548;50.506;30.834;2022-10-28T04:18:38;17.10;;;12.75;;
50591;SDS011;36548;50.506;30.834;2022-10-28T04:19:54;15.05;;;12.72;;
50591;SDS011;36548;50.506;30.834;2022-10-28T04:21:04;13.20;;;11.88;;
50591;SDS011;36548;50.506;30.834;2022-10-28T04:22:14;14.65;;;12.65;;
50591;SDS011;36548;50.506;30.834;2022-10-28T04:23:29;13.93;;;11.47;;
50591;SDS011;36548;50.506;30.834;2022-10-28T04:24:40;14.98;;;11.50;;
50591;SDS011;36548;50.506;30.834;2022-10-28T04:25:55;13.70;;;11.12;;
50591;SDS011;36548;50.506;30.834;2022-10-28T04:27:05;13.00;;;11.00;;
50591;SDS011;36548;50.506;30.834;2022-10-28T04:28:21;13.88;;;12.45;;
50591;SDS011;36548;50.506;30.834;2022-10-28T04:29:33;13.08;;;11.50;;
50591;SDS011;36548;50.506;30.834;2022-10-28T04:30:45;14.48;;;11.90;;
50591;SDS011;36548;50.506;30.834;2022-10-28T04:33:17;14.32;;;12.82;;
50591;SDS011;36548;50.506;30.834;2022-10-28T04:34:32;15.28;;;12.65;;
50591;SDS011;36548;50.506;30.834;2022-10-28T04:35:41;17.18;;;12.65;;
50591;SDS011;36548;50.506;30.834;2022-10-28T04:36:50;15.15;;;11.75;;
50591;SDS011;36548;50.506;30.834;2022-10-28T04:38:00;13.35;;;11.80;;
50591;SDS011;36548;50.506;30.834;2022-10-28T04:39:09;12.15;;;10.95;;
50591;SDS011;36548;50.506;30.834;2022-10-28T04:40:24;13.22;;;10.87;;
50591;SDS011;36548;50.506;30.834;2022-10-28T04:41:34;13.92;;;11.45;;
50591;SDS011;36548;50.506;30.834;2022-10-28T04:42:43;12.97;;;11.53;;
50591;SDS011;36548;50.506;30.834;2022-10-28T04:43:52;12.90;;;10.45;;
50591;SDS011;36548;50.506;30.834;2022-10-28T04:45:04;14.47;;;9.78;;
50591;SDS011;36548;50.506;30.834;2022-10-28T04:46:21;12.65;;;10.40;;
50591;SDS011;36548;50.506;30.834;2022-10-28T04:47:31;12.45;;;10.85;;
50591;SDS011;36548;50.506;30.834;2022-10-28T04:48:46;13.35;;;10.28;;
50591;SDS011;36548;50.506;30.834;2022-10-28T04:49:56;13.62;;;9.85;;
50591;SDS011;36548;50.506;30.834;2022-10-28T04:51:06;14.95;;;10.37;;
50591;SDS011;36548;50.506;30.834;2022-10-28T04:52:21;12.45;;;11.07;;
50591;SDS011;36548;50.506;30.834;2022-10-28T04:53:30;11.13;;;9.73;;
50591;SDS011;36548;50.506;30.834;2022-10-28T04:55:05;12.37;;;11.07;;
50591;SDS011;36548;50.506;30.834;2022-10-28T04:56:14;13.03;;;9.32;;
50591;SDS011;36548;50.506;30.834;2022-10-28T04:57:30;12.23;;;9.87;;
50591;SDS011;36548;50.506;30.834;2022-10-28T04:58:40;11.57;;;10.32;;
50591;SDS011;36548;50.506;30.834;2022-10-28T04:59:55;23.90;;;10.60;;
50591;SDS011;36548;50.506;30.834;2022-10-28T05:01:04;11.90;;;10.53;;
50591;SDS011;36548;50.506;30.834;2022-10-28T05:02:22;13.93;;;9.80;;
50591;SDS011;36548;50.506;30.834;2022-10-28T05:03:32;10.70;;;9.60;;
50591;SDS011;36548;50.506;30.834;2022-10-28T05:04:43;14.92;;;10.37;;
50591;SDS011;36548;50.506;30.834;2022-10-28T05:05:59;13.10;;;10.85;;
50591;SDS011;36548;50.506;30.834;2022-10-28T05:07:08;14.80;;;10.95;;
50591;SDS011;36548;50.506;30.834;2022-10-28T05:08:23;10.40;;;9.35;;
50591;SDS011;36548;50.506;30.834;2022-10-28T05:09:32;13.00;;;10.70;;
50591;SDS011;36548;50.506;30.834;2022-10-28T05:10:58;18.60;;;11.37;;
50591;SDS011;36548;50.506;30.834;2022-10-28T05:12:06;15.93;;;11.73;;
50591;SDS011;36548;50.506;30.834;2022-10-28T05:13:17;14.92;;;11.82;;
50591;SDS011;36548;50.506;30.834;2022-10-28T05:14:32;15.38;;;12.05;;
50591;SDS011;36548;50.506;30.834;2022-10-28T05:15:40;15.45;;;12.13;;
50591;SDS011;36548;50.506;30.834;2022-10-28T05:16:56;18.98;;;13.95;;
50591;SDS011;36548;50.506;30.834;2022-10-28T05:18:05;17.58;;;14.78;;
50591;SDS011;36548;50.506;30.834;2022-10-28T05:19:21;20.68;;;16.50;;
50591;SDS011;36548;50.506;30.834;2022-10-28T05:20:30;16.88;;;14.85;;
50591;SDS011;36548;50.506;30.834;2022-10-28T05:21:45;19.47;;;16.85;;
50591;SDS011;36548;50.506;30.834;2022-10-28T05:22:55;19.60;;;16.43;;
50591;SDS011;36548;50.506;30.834;2022-10-28T05:24:11;20.00;;;17.53;;
50591;SDS011;36548;50.506;30.834;2022-10-28T05:25:21;22.65;;;16.80;;
50591;SDS011;36548;50.506;30.834;2022-10-28T05:26:37;18.95;;;15.58;;
50591;SDS011;36548;50.506;30.834;2022-10-28T05:27:46;17.02;;;15.12;;
50591;SDS011;36548;50.506;30.834;2022-10-28T05:29:01;15.48;;;13.50;;
50591;SDS011;36548;50.506;30.834;2022-10-28T05:30:11;14.47;;;12.95;;
50591;SDS011;36548;50.506;30.834;2022-10-28T05:31:26;14.90;;;13.02;;
50591;SDS011;36548;50.506;30.834;2022-10-28T05:32:36;15.06;;;12.58;;
50591;SDS011;36548;50.506;30.834;2022-10-28T05:33:45;15.75;;;12.08;;
50591;SDS011;36548;50.506;30.834;2022-10-28T05:34:54;15.80;;;13.93;;
50591;SDS011;36548;50.506;30.834;2022-10-28T05:36:03;16.80;;;13.90;;
50591;SDS011;36548;50.506;30.834;2022-10-28T05:37:19;15.32;;;12.52;;
50591;SDS011;36548;50.506;30.834;2022-10-28T05:38:27;15.95;;;12.57;;
50591;SDS011;36548;50.506;30.834;2022-10-28T05:39:42;13.83;;;12.27;;
50591;SDS011;36548;50.506;30.834;2022-10-28T05:40:52;13.95;;;12.35;;
50591;SDS011;36548;50.506;30.834;2022-10-28T05:42:07;14.15;;;12.55;;
50591;SDS011;36548;50.506;30.834;2022-10-28T05:43:17;13.60;;;12.20;;
50591;SDS011;36548;50.506;30.834;2022-10-28T05:44:32;14.93;;;12.85;;
50591;SDS011;36548;50.506;30.834;2022-10-28T05:45:41;15.05;;;13.50;;
50591;SDS011;36548;50.506;30.834;2022-10-28T05:46:57;17.77;;;12.85;;
50591;SDS011;36548;50.506;30.834;2022-10-28T05:48:06;16.33;;;12.87;;
50591;SDS011;36548;50.506;30.834;2022-10-28T05:49:22;17.68;;;12.83;;
50591;SDS011;36548;50.506;30.834;2022-10-28T05:50:32;14.78;;;12.98;;
50591;SDS011;36548;50.506;30.834;2022-10-28T05:51:48;17.15;;;13.25;;
50591;SDS011;36548;50.506;30.834;2022-10-28T05:52:57;17.03;;;13.48;;
50591;SDS011;36548;50.506;30.834;2022-10-28T05:54:12;14.85;;;13.00;;
50591;SDS011;36548;50.506;30.834;2022-10-28T05:55:23;17.40;;;14.20;;
50591;SDS011;36548;50.506;30.834;2022-10-28T05:56:42;19.52;;;14.10;;
50591;SDS011;36548;50.506;30.834;2022-10-28T05:58:12;17.43;;;14.68;;
50591;SDS011;36548;50.506;30.834;2022-10-28T05:59:27;17.67;;;15.50;;
50591;SDS011;36548;50.506;30.834;2022-10-28T06:00:35;16.48;;;14.43;;
50591;SDS011;36548;50.506;30.834;2022-10-28T06:01:50;17.42;;;13.70;;
50591;SDS011;36548;50.506;30.834;2022-10-28T06:03:00;18.42;;;13.32;;
50591;SDS011;36548;50.506;30.834;2022-10-28T06:04:20;18.02;;;14.63;;
50591;SDS011;36548;50.506;30.834;2022-10-28T06:05:30;17.18;;;14.62;;
50591;SDS011;36548;50.506;30.834;2022-10-28T06:06:44;19.75;;;14.52;;
50591;SDS011;36548;50.506;30.834;2022-10-28T06:07:54;17.75;;;14.20;;
50591;SDS011;36548;50.506;30.834;2022-10-28T06:09:03;18.30;;;14.10;;
50591;SDS011;36548;50.506;30.834;2022-10-28T06:10:19;18.90;;;14.02;;
50591;SDS011;36548;50.506;30.834;2022-10-28T06:11:28;20.82;;;15.57;;
50591;SDS011;36548;50.506;30.834;2022-10-28T06:13:03;20.18;;;16.97;;
50591;SDS011;36548;50.506;30.834;2022-10-28T06:14:12;22.15;;;19.10;;
50591;SDS011;36548;50.506;30.834;2022-10-28T06:16:44;26.45;;;18.45;;
50591;SDS011;36548;50.506;30.834;2022-10-28T06:18:12;21.60;;;17.73;;
50591;SDS011;36548;50.506;30.834;2022-10-28T06:19:22;24.12;;;17.23;;
50591;SDS011;36548;50.506;30.834;2022-10-28T06:20:31;20.73;;;16.63;;
50591;SDS011;36548;50.506;30.834;2022-10-28T06:21:53;21.82;;;17.12;;
50591;SDS011;36548;50.506;30.834;2022-10-28T06:23:04;22.87;;;17.93;;
50591;SDS011;36548;50.506;30.834;2022-10-28T06:24:19;20.62;;;17.07;;
50591;SDS011;36548;50.506;30.834;2022-10-28T06:25:28;19.75;;;16.33;;
50591;SDS011;36548;50.506;30.834;2022-10-28T06:26:43;17.97;;;15.62;;
50591;SDS011;36548;50.506;30.834;2022-10-28T06:27:58;22.68;;;15.72;;
50591;SDS011;36548;50.506;30.834;2022-10-28T06:29:16;18.37;;;14.72;;
50591;SDS011;36548;50.506;30.834;2022-10-28T06:30:26;21.35;;;14.23;;
50591;SDS011;36548;50.506;30.834;2022-10-28T06:31:39;15.50;;;13.90;;
50591;SDS011;36548;50.506;30.834;2022-10-28T06:32:55;17.62;;;14.77;;
50591;SDS011;36548;50.506;30.834;2022-10-28T06:34:04;20.00;;;13.92;;
50591;SDS011;36548;50.506;30.834;2022-10-28T06:35:14;19.33;;;15.00;;
50591;SDS011;36548;50.506;30.834;2022-10-28T06:36:30;15.42;;;13.82;;
50591;SDS011;36548;50.506;30.834;2022-10-28T06:37:38;17.33;;;15.28;;
50591;SDS011;36548;50.506;30.834;2022-10-28T06:38:47;16.68;;;14.60;;
50591;SDS011;36548;50.506;30.834;2022-10-28T06:40:04;18.83;;;15.53;;
50591;SDS011;36548;50.506;30.834;2022-10-28T06:41:14;16.52;;;14.27;;
50591;SDS011;36548;50.506;30.834;2022-10-28T06:42:29;15.85;;;14.07;;
50591;SDS011;36548;50.506;30.834;2022-10-28T06:43:38;15.22;;;13.25;;
50591;SDS011;36548;50.506;30.834;2022-10-28T06:44:47;14.75;;;12.40;;
50591;SDS011;36548;50.506;30.834;2022-10-28T06:45:59;16.60;;;13.15;;
50591;SDS011;36548;50.506;30.834;2022-10-28T06:47:13;14.30;;;12.60;;
50591;SDS011;36548;50.506;30.834;2022-10-28T06:49:33;17.07;;;11.58;;
50591;SDS011;36548;50.506;30.834;2022-10-28T06:50:50;13.58;;;11.68;;
50591;SDS011;36548;50.506;30.834;2022-10-28T06:52:01;12.87;;;11.58;;
50591;SDS011;36548;50.506;30.834;2022-10-28T06:53:17;15.82;;;11.33;;
50591;SDS011;36548;50.506;30.834;2022-10-28T06:54:26;13.70;;;12.05;;
50591;SDS011;36548;50.506;30.834;2022-10-28T06:55:42;14.95;;;12.08;;
50591;SDS011;36548;50.506;30.834;2022-10-28T06:56:53;15.57;;;12.07;;
50591;SDS011;36548;50.506;30.834;2022-10-28T06:58:10;14.67;;;13.15;;
50591;SDS011;36548;50.506;30.834;2022-10-28T06:59:19;16.90;;;13.95;;
50591;SDS011;36548;50.506;30.834;2022-10-28T07:00:54;21.67;;;15.07;;
50591;SDS011;36548;50.506;30.834;2022-10-28T07:02:03;22.30;;;16.95;;
50591;SDS011;36548;50.506;30.834;2022-10-28T07:03:18;22.58;;;16.65;;
50591;SDS011;36548;50.506;30.834;2022-10-28T07:04:28;19.03;;;16.47;;
50591;SDS011;36548;50.506;30.834;2022-10-28T07:05:37;19.45;;;15.75;;
50591;SDS011;36548;50.506;30.834;2022-10-28T07:06:46;20.95;;;16.58;;
50591;SDS011;36548;50.506;30.834;2022-10-28T07:07:58;17.33;;;15.37;;
50591;SDS011;36548;50.506;30.834;2022-10-28T07:09:13;17.33;;;14.68;;
50591;SDS011;36548;50.506;30.834;2022-10-28T07:10:26;15.65;;;13.70;;
50591;SDS011;36548;50.506;30.834;2022-10-28T07:11:35;17.95;;;13.65;;
50591;SDS011;36548;50.506;30.834;2022-10-28T07:12:44;15.55;;;13.65;;
50591;SDS011;36548;50.506;30.834;2022-10-28T07:14:20;14.73;;;12.27;;
50591;SDS011;36548;50.506;30.834;2022-10-28T07:15:29;13.73;;;12.25;;
50591;SDS011;36548;50.506;30.834;2022-10-28T07:16:43;14.63;;;11.78;;
50591;SDS011;36548;50.506;30.834;2022-10-28T07:17:53;17.10;;;13.25;;
50591;SDS011;36548;50.506;30.834;2022-10-28T07:19:03;14.73;;;12.67;;
50591;SDS011;36548;50.506;30.834;2022-10-28T07:20:18;17.45;;;13.33;;
50591;SDS011;36548;50.506;30.834;2022-10-28T07:21:28;18.83;;;13.22;;
50591;SDS011;36548;50.506;30.834;2022-10-28T07:22:44;18.42;;;14.35;;
50591;SDS011;36548;50.506;30.834;2022-10-28T07:23:54;19.07;;;13.53;;
50591;SDS011;36548;50.506;30.834;2022-10-28T07:25:10;15.65;;;13.20;;
50591;SDS011;36548;50.506;30.834;2022-10-28T07:26:19;18.05;;;13.60;;
50591;SDS011;36548;50.506;30.834;2022-10-28T07:27:29;16.55;;;13.60;;
50591;SDS011;36548;50.506;30.834;2022-10-28T07:28:39;18.98;;;12.85;;
50591;SDS011;36548;50.506;30.834;2022-10-28T07:30:15;16.65;;;13.28;;
50591;SDS011;36548;50.506;30.834;2022-10-28T07:31:24;19.80;;;16.27;;
50591;SDS011;36548;50.506;30.834;2022-10-28T07:32:41;22.80;;;17.62;;
50591;SDS011;36548;50.506;30.834;2022-10-28T07:33:50;20.33;;;15.40;;
50591;SDS011;36548;50.506;30.834;2022-10-28T07:35:07;18.33;;;14.42;;
50591;SDS011;36548;50.506;30.834;2022-10-28T07:36:17;18.55;;;14.82;;
50591;SDS011;36548;50.506;30.834;2022-10-28T07:37:26;21.48;;;13.98;;
50591;SDS011;36548;50.506;30.834;2022-10-28T07:38:41;17.38;;;15.03;;
50591;SDS011;36548;50.506;30.834;2022-10-28T07:39:52;16.28;;;12.85;;
50591;SDS011;36548;50.506;30.834;2022-10-28T07:41:08;13.97;;;12.50;;
50591;SDS011;36548;50.506;30.834;2022-10-28T07:42:19;14.35;;;12.85;;
50591;SDS011;36548;50.506;30.834;2022-10-28T07:43:28;17.70;;;14.20;;
50591;SDS011;36548;50.506;30.834;2022-10-28T07:44:44;17.87;;;13.78;;
50591;SDS011;36548;50.506;30.834;2022-10-28T07:45:56;17.35;;;13.98;;
50591;SDS011;36548;50.506;30.834;2022-10-28T07:47:12;17.75;;;14.05;;
50591;SDS011;36548;50.506;30.834;2022-10-28T07:48:22;16.25;;;13.05;;
50591;SDS011;36548;50.506;30.834;2022-10-28T07:49:38;14.25;;;12.20;;
50591;SDS011;36548;50.506;30.834;2022-10-28T07:50:47;16.85;;;11.93;;
50591;SDS011;36548;50.506;30.834;2022-10-28T07:51:56;19.03;;;13.32;;
50591;SDS011;36548;50.506;30.834;2022-10-28T07:53:12;18.10;;;12.65;;
50591;SDS011;36548;50.506;30.834;2022-10-28T07:54:21;16.50;;;12.68;;
50591;SDS011;36548;50.506;30.834;2022-10-28T07:55:29;14.98;;;12.30;;